Aviation Digital Data Service (ADDS)

Output produced by METARs form (2329 UTC 17 January 2017)
found at http://www.aviationweather.gov/adds/metars/
 
KESN 172254Z 16005KT 2SM BR BKN004 OVC020 09/08 A3003